createdAt,value
2018-11-01T00:01:43.522Z,13.25
2018-11-01T00:04:11.137Z,16.70
2018-11-01T00:06:38.920Z,15.55
2018-11-01T00:09:08.046Z,15.10
2018-11-01T00:11:36.344Z,13.85
2018-11-01T00:14:05.096Z,13.35
2018-11-01T00:16:33.310Z,12.75
2018-11-01T00:19:00.948Z,12.53
2018-11-01T00:21:29.511Z,13.55
2018-11-01T00:23:57.353Z,11.97
2018-11-01T00:26:25.022Z,12.45
2018-11-01T00:28:52.757Z,13.22
2018-11-01T00:31:20.335Z,12.18
2018-11-01T00:33:48.038Z,12.90
2018-11-01T00:36:16.321Z,10.53
2018-11-01T00:38:43.951Z,9.95
2018-11-01T00:41:11.558Z,11.40
2018-11-01T00:43:39.657Z,10.23
2018-11-01T00:46:07.308Z,16.42
2018-11-01T00:48:35.105Z,9.33
2018-11-01T00:51:02.807Z,10.80
2018-11-01T00:53:30.477Z,4.20
2018-11-01T00:55:58.137Z,6.47
2018-11-01T00:58:26.534Z,5.42
2018-11-01T01:00:54.313Z,4.03
2018-11-01T01:03:22.061Z,5.10
2018-11-01T01:05:50.341Z,4.92
2018-11-01T01:08:18.633Z,5.75
2018-11-01T01:10:46.270Z,9.65
2018-11-01T01:13:13.962Z,13.53
2018-11-01T01:15:41.584Z,11.70
2018-11-01T01:18:09.204Z,12.18
2018-11-01T01:20:36.800Z,15.75
2018-11-01T01:23:04.990Z,14.45
2018-11-01T01:25:32.573Z,15.08
2018-11-01T01:28:00.191Z,17.12
2018-11-01T01:30:27.925Z,18.20
2018-11-01T01:32:55.646Z,16.93
2018-11-01T01:35:23.319Z,18.57
2018-11-01T01:37:50.914Z,17.20
2018-11-01T01:40:19.246Z,16.48
2018-11-01T01:42:52.737Z,18.65
2018-11-01T01:45:21.642Z,17.00
2018-11-01T01:47:49.285Z,18.42
2018-11-01T01:50:17.721Z,20.77
2018-11-01T01:52:46.285Z,17.35
2018-11-01T01:55:14.696Z,22.00
2018-11-01T01:57:42.406Z,22.70
2018-11-01T02:00:13.076Z,19.80
2018-11-01T02:02:42.390Z,26.20
2018-11-01T02:05:10.991Z,19.45
2018-11-01T02:07:38.966Z,20.10
2018-11-01T02:10:08.783Z,23.15
2018-11-01T02:12:36.699Z,23.55
2018-11-01T02:15:05.977Z,24.07
2018-11-01T02:17:34.215Z,25.40
2018-11-01T02:20:03.135Z,30.82
2018-11-01T02:22:30.848Z,27.48
2018-11-01T02:24:58.540Z,24.52
2018-11-01T02:27:30.732Z,26.42
2018-11-01T02:29:59.005Z,26.15
2018-11-01T02:32:27.461Z,25.15
2018-11-01T02:34:55.071Z,26.95
2018-11-01T02:37:22.667Z,28.50
2018-11-01T02:39:50.271Z,26.02
2018-11-01T02:42:17.869Z,25.20
2018-11-01T02:44:45.471Z,29.15
2018-11-01T02:47:13.123Z,24.92
2018-11-01T02:49:41.561Z,27.77
2018-11-01T02:52:09.207Z,28.00
2018-11-01T02:54:36.798Z,24.98
2018-11-01T02:57:04.705Z,32.40
2018-11-01T02:59:33.149Z,32.53
2018-11-01T03:02:00.774Z,33.40
2018-11-01T03:04:28.449Z,30.35
2018-11-01T03:06:56.057Z,31.50
2018-11-01T03:09:24.245Z,33.15
2018-11-01T03:11:51.878Z,34.03
2018-11-01T03:14:20.271Z,28.07
2018-11-01T03:16:48.503Z,31.85
2018-11-01T03:19:16.123Z,26.37
2018-11-01T03:21:44.530Z,32.63
2018-11-01T03:24:12.205Z,29.75
2018-11-01T03:26:39.915Z,27.70
2018-11-01T03:29:07.509Z,25.68
2018-11-01T03:31:35.071Z,27.50
2018-11-01T03:34:02.619Z,26.82
2018-11-01T03:36:30.372Z,30.50
2018-11-01T03:38:58.017Z,27.15
2018-11-01T03:41:25.858Z,25.15
2018-11-01T03:43:53.446Z,25.30
2018-11-01T03:46:21.145Z,25.17
2018-11-01T03:48:48.850Z,29.02
2018-11-01T03:51:16.550Z,27.48
2018-11-01T03:53:44.279Z,30.35
2018-11-01T03:56:11.784Z,24.60
2018-11-01T03:58:39.457Z,23.55
2018-11-01T04:01:08.726Z,25.85
2018-11-01T04:03:36.714Z,24.10
2018-11-01T04:06:04.625Z,23.32
2018-11-01T04:08:33.061Z,22.98
2018-11-01T04:11:00.837Z,22.62
2018-11-01T04:13:28.522Z,16.82
2018-11-01T04:15:56.080Z,16.70
2018-11-01T04:18:23.654Z,16.12
2018-11-01T04:20:51.350Z,16.97
2018-11-01T04:23:19.698Z,20.23
2018-11-01T04:25:47.382Z,17.57
2018-11-01T04:28:14.970Z,16.07
2018-11-01T04:30:42.574Z,19.62
2018-11-01T04:33:10.203Z,23.65
2018-11-01T04:35:38.563Z,23.38
2018-11-01T04:38:06.090Z,18.02
2018-11-01T04:40:33.725Z,23.12
2018-11-01T04:43:01.335Z,18.05
2018-11-01T04:45:29.018Z,20.35
2018-11-01T04:47:56.773Z,21.00
2018-11-01T04:50:24.313Z,15.68
2018-11-01T04:52:51.865Z,25.23
2018-11-01T04:55:20.225Z,20.35
2018-11-01T04:57:47.861Z,24.43
2018-11-01T05:00:15.534Z,22.55
2018-11-01T05:02:43.577Z,23.45
2018-11-01T05:05:11.365Z,20.40
2018-11-01T05:07:39.093Z,22.37
2018-11-01T05:10:08.609Z,19.73
2018-11-01T05:12:36.764Z,28.75
2018-11-01T05:15:04.738Z,26.35
2018-11-01T05:17:32.356Z,25.62
2018-11-01T05:19:59.995Z,25.45
2018-11-01T05:22:28.682Z,20.77
2018-11-01T05:24:56.280Z,20.97
2018-11-01T05:27:23.957Z,19.95
2018-11-01T05:29:51.649Z,20.57
2018-11-01T05:32:20.062Z,24.82
2018-11-01T05:34:48.420Z,26.97
2018-11-01T05:37:16.276Z,23.57
2018-11-01T05:39:43.935Z,22.93
2018-11-01T05:42:11.964Z,25.85
2018-11-01T05:44:39.929Z,22.67
2018-11-01T05:47:07.932Z,22.65
2018-11-01T05:49:35.583Z,24.80
2018-11-01T05:52:03.441Z,18.23
2018-11-01T05:54:31.886Z,19.15
2018-11-01T05:56:59.556Z,22.75
2018-11-01T05:59:27.214Z,18.20
2018-11-01T06:01:58.835Z,22.45
2018-11-01T06:04:26.456Z,22.35
2018-11-01T06:06:54.191Z,17.40
2018-11-01T06:09:27.450Z,19.42
2018-11-01T06:11:55.193Z,19.70
2018-11-01T06:14:22.919Z,18.52
2018-11-01T06:16:50.649Z,17.92
2018-11-01T06:19:18.496Z,19.98
2018-11-01T06:21:46.617Z,17.10
2018-11-01T06:24:15.052Z,18.92
2018-11-01T06:26:42.694Z,23.77
2018-11-01T06:29:10.906Z,18.25
2018-11-01T06:31:38.546Z,21.27
2018-11-01T06:34:07.998Z,22.90
2018-11-01T06:36:36.367Z,21.35
2018-11-01T06:39:05.930Z,19.75
2018-11-01T06:41:33.506Z,19.55
2018-11-01T06:44:01.137Z,26.42
2018-11-01T06:46:28.754Z,18.80
2018-11-01T06:48:56.417Z,24.20
2018-11-01T06:51:24.015Z,18.02
2018-11-01T06:53:53.477Z,24.15
2018-11-01T06:56:21.081Z,23.65
2018-11-01T06:58:49.046Z,25.75
2018-11-01T07:01:16.626Z,24.02
2018-11-01T07:03:44.220Z,27.48
2018-11-01T07:06:11.905Z,24.92
2018-11-01T07:08:40.541Z,24.02
2018-11-01T07:11:08.252Z,22.00
2018-11-01T07:13:35.835Z,23.87
2018-11-01T07:16:04.847Z,23.10
2018-11-01T07:18:32.502Z,24.15
2018-11-01T07:21:00.167Z,19.62
2018-11-01T07:23:27.834Z,21.68
2018-11-01T07:25:55.575Z,30.00
2018-11-01T07:28:23.081Z,18.25
2018-11-01T07:30:50.748Z,17.45
2018-11-01T07:33:18.366Z,16.05
2018-11-01T07:35:46.788Z,14.80
2018-11-01T07:38:14.477Z,14.90
2018-11-01T07:40:42.154Z,15.45
2018-11-01T07:43:09.810Z,15.60
2018-11-01T07:45:37.490Z,18.20
2018-11-01T07:48:06.160Z,13.93
2018-11-01T07:50:34.519Z,13.55
2018-11-01T07:53:02.224Z,15.10
2018-11-01T07:55:29.753Z,14.23
2018-11-01T07:57:57.440Z,17.85
2018-11-01T08:00:25.246Z,13.53
2018-11-01T08:02:53.009Z,12.20
2018-11-01T08:05:20.760Z,19.10
2018-11-01T08:07:48.472Z,16.60
2018-11-01T08:10:17.315Z,19.10
2018-11-01T08:12:45.655Z,16.00
2018-11-01T08:15:15.363Z,19.27
2018-11-01T08:17:43.016Z,20.23
2018-11-01T08:20:12.356Z,18.17
2018-11-01T08:22:40.141Z,20.30
2018-11-01T08:25:08.436Z,20.35
2018-11-01T08:27:36.467Z,18.57
2018-11-01T08:30:05.398Z,19.75
2018-11-01T08:32:33.048Z,25.55
2018-11-01T08:35:00.689Z,26.00
2018-11-01T08:37:28.947Z,23.30
2018-11-01T08:39:58.084Z,28.27
2018-11-01T08:42:26.781Z,24.15
2018-11-01T08:44:54.488Z,27.22
2018-11-01T08:47:22.161Z,25.55
2018-11-01T08:49:50.349Z,30.57
2018-11-01T08:52:17.981Z,36.88
2018-11-01T08:54:46.306Z,36.08
2018-11-01T08:57:14.118Z,31.60
2018-11-01T08:59:41.719Z,28.65
2018-11-01T09:02:09.716Z,31.20
2018-11-01T09:04:38.093Z,31.85
2018-11-01T09:07:06.206Z,29.85
2018-11-01T09:09:33.915Z,28.40
2018-11-01T09:12:01.702Z,27.98
2018-11-01T09:14:30.213Z,37.70
2018-11-01T09:16:57.831Z,32.15
2018-11-01T09:19:25.491Z,30.10
2018-11-01T09:21:53.467Z,28.65
2018-11-01T09:24:21.155Z,27.93
2018-11-01T09:26:48.834Z,32.30
2018-11-01T09:29:16.626Z,34.27
2018-11-01T09:31:44.265Z,32.23
2018-11-01T09:34:11.886Z,28.85
2018-11-01T09:36:39.903Z,28.85
2018-11-01T09:39:09.571Z,29.40
2018-11-01T09:41:37.217Z,28.85
2018-11-01T09:44:06.349Z,28.20
2018-11-01T09:46:34.616Z,22.55
2018-11-01T09:49:02.190Z,20.88
2018-11-01T09:51:29.999Z,22.13
2018-11-01T09:53:57.836Z,19.30
2018-11-01T09:56:25.812Z,17.77
2018-11-01T09:58:53.511Z,18.10
2018-11-01T10:01:22.017Z,18.62
2018-11-01T10:03:50.441Z,21.33
2018-11-01T10:06:18.339Z,15.90
2018-11-01T10:08:46.101Z,16.65
2018-11-01T10:11:14.394Z,15.45
2018-11-01T10:13:42.155Z,13.58
2018-11-01T10:16:10.481Z,16.37
2018-11-01T10:18:38.175Z,18.70
2018-11-01T10:21:06.352Z,13.68
2018-11-01T10:23:34.312Z,12.60
2018-11-01T10:26:02.223Z,10.53
2018-11-01T10:28:30.492Z,9.75
2018-11-01T10:30:58.730Z,9.20
2018-11-01T10:33:27.099Z,8.83
2018-11-01T10:35:55.337Z,9.90
2018-11-01T10:38:29.000Z,9.95
2018-11-01T10:41:02.200Z,12.07
2018-11-01T10:43:31.368Z,11.85
2018-11-01T10:46:00.466Z,11.05
2018-11-01T10:48:28.651Z,9.48
2018-11-01T10:50:57.541Z,9.30
2018-11-01T10:53:25.906Z,9.28
2018-11-01T10:55:57.674Z,9.05
2018-11-01T10:58:25.444Z,9.70
2018-11-01T11:01:00.876Z,10.78
2018-11-01T11:03:30.351Z,11.15
2018-11-01T11:05:59.234Z,10.48
2018-11-01T11:08:28.847Z,12.18
2018-11-01T11:10:57.339Z,11.97
2018-11-01T11:13:25.481Z,10.95
2018-11-01T11:15:53.592Z,10.65
2018-11-01T11:18:21.600Z,11.78
2018-11-01T11:20:50.848Z,12.60
2018-11-01T11:23:23.045Z,11.55
2018-11-01T11:25:53.029Z,10.98
2018-11-01T11:28:20.847Z,9.90
2018-11-01T11:30:48.875Z,11.78
2018-11-01T11:33:19.376Z,14.83
2018-11-01T11:35:48.223Z,11.85
2018-11-01T11:38:18.000Z,10.50
2018-11-01T11:40:45.913Z,12.88
2018-11-01T11:43:13.724Z,10.58
2018-11-01T11:45:42.762Z,10.10
2018-11-01T11:48:10.555Z,11.35
2018-11-01T11:50:38.961Z,10.85
2018-11-01T11:53:06.703Z,10.38
2018-11-01T11:55:34.622Z,13.90
2018-11-01T11:58:03.197Z,10.45
2018-11-01T12:00:31.192Z,9.50
2018-11-01T12:02:59.709Z,10.08
2018-11-01T12:05:28.626Z,9.00
2018-11-01T12:07:56.625Z,10.53
2018-11-01T12:10:24.617Z,13.58
2018-11-01T12:12:52.681Z,9.33
2018-11-01T12:15:21.273Z,9.98
2018-11-01T12:17:49.160Z,9.30
2018-11-01T12:20:17.590Z,11.48
2018-11-01T12:22:45.388Z,10.78
2018-11-01T12:25:13.347Z,11.18
2018-11-01T12:27:41.225Z,10.05
2018-11-01T12:30:10.124Z,11.48
2018-11-01T12:32:37.881Z,10.55
2018-11-01T12:35:06.481Z,11.80
2018-11-01T12:37:34.896Z,11.15
2018-11-01T12:40:02.922Z,10.95
2018-11-01T12:42:31.293Z,12.65
2018-11-01T12:44:59.669Z,11.97
2018-11-01T12:47:27.725Z,13.15
2018-11-01T12:49:55.596Z,11.00
2018-11-01T12:52:24.246Z,13.62
2018-11-01T12:54:52.102Z,11.65
2018-11-01T12:57:20.391Z,11.83
2018-11-01T12:59:48.605Z,13.40
2018-11-01T13:02:17.143Z,13.45
2018-11-01T13:04:45.055Z,13.55
2018-11-01T13:07:13.618Z,14.13
2018-11-01T13:09:41.408Z,16.50
2018-11-01T13:12:10.726Z,16.67
2018-11-01T13:14:38.579Z,16.12
2018-11-01T13:17:06.824Z,16.07
2018-11-01T13:19:34.805Z,14.68
2018-11-01T13:22:02.763Z,17.50
2018-11-01T13:24:30.832Z,14.63
2018-11-01T13:26:59.007Z,13.85
2018-11-01T13:29:26.826Z,14.50
2018-11-01T13:31:54.540Z,15.58
2018-11-01T13:34:23.266Z,14.70
2018-11-01T13:36:51.636Z,14.28
2018-11-01T13:39:20.921Z,15.40
2018-11-01T13:41:48.825Z,13.03
2018-11-01T13:44:16.664Z,15.53
2018-11-01T13:46:44.751Z,14.20
2018-11-01T13:49:12.942Z,13.58
2018-11-01T13:51:40.983Z,17.00
2018-11-01T13:54:08.901Z,14.93
2018-11-01T13:56:36.933Z,12.07
2018-11-01T13:59:05.528Z,11.48
2018-11-01T14:01:33.439Z,11.40
2018-11-01T14:04:02.581Z,11.80
2018-11-01T14:06:30.667Z,12.15
2018-11-01T14:08:58.746Z,9.80
2018-11-01T14:11:27.236Z,8.00
2018-11-01T14:13:55.928Z,6.65
2018-11-01T14:16:23.787Z,5.85
2018-11-01T14:18:52.591Z,6.28
2018-11-01T14:21:21.958Z,7.12
2018-11-01T14:23:49.774Z,6.30
2018-11-01T14:26:17.886Z,5.87
2018-11-01T14:28:45.711Z,6.35
2018-11-01T14:31:13.579Z,6.15
2018-11-01T14:33:41.810Z,6.28
2018-11-01T14:36:09.988Z,6.08
2018-11-01T14:38:37.995Z,5.17
2018-11-01T14:41:06.536Z,6.55
2018-11-01T14:43:34.456Z,5.83
2018-11-01T14:46:02.435Z,5.87
2018-11-01T14:48:30.267Z,5.55
2018-11-01T14:50:58.144Z,5.60
2018-11-01T14:53:26.596Z,5.20
2018-11-01T14:55:55.851Z,5.92
2018-11-01T14:58:23.555Z,5.10
2018-11-01T15:00:50.203Z,5.65
2018-11-01T15:03:18.421Z,5.42
2018-11-01T15:05:46.477Z,4.87
2018-11-01T15:08:14.213Z,5.47
2018-11-01T15:10:42.003Z,3.92
2018-11-01T15:13:10.713Z,4.90
2018-11-01T15:15:39.066Z,5.03
2018-11-01T15:18:07.139Z,5.08
2018-11-01T15:20:35.026Z,4.80
2018-11-01T15:23:04.147Z,4.10
2018-11-01T15:25:32.288Z,5.03
2018-11-01T15:28:00.178Z,5.70
2018-11-01T15:30:28.035Z,6.83
2018-11-01T15:32:55.878Z,4.62
2018-11-01T15:35:23.835Z,5.00
2018-11-01T15:37:51.759Z,6.03
2018-11-01T15:40:19.912Z,9.55
2018-11-01T15:42:47.709Z,6.20
2018-11-01T15:45:15.593Z,6.97
2018-11-01T15:47:44.061Z,9.53
2018-11-01T15:50:12.806Z,12.65
2018-11-01T15:52:40.641Z,13.93
2018-11-01T15:55:08.759Z,8.13
2018-11-01T15:57:37.104Z,9.00
2018-11-01T16:00:05.604Z,8.60
2018-11-01T16:02:34.227Z,16.67
2018-11-01T16:05:02.497Z,8.30
2018-11-01T16:07:30.346Z,10.03
2018-11-01T16:09:59.064Z,7.22
2018-11-01T16:12:26.895Z,6.65
2018-11-01T16:14:54.640Z,8.13
2018-11-01T16:17:22.530Z,8.45
2018-11-01T16:19:50.681Z,4.90
2018-11-01T16:22:18.435Z,6.30
2018-11-01T16:24:46.330Z,5.03
2018-11-01T16:29:42.096Z,5.35
2018-11-01T16:32:10.635Z,5.35
2018-11-01T16:34:39.640Z,4.87
2018-11-01T16:37:07.700Z,5.42
2018-11-01T16:39:35.795Z,4.90
2018-11-01T16:42:04.483Z,4.35
2018-11-01T16:44:32.304Z,7.08
2018-11-01T16:47:00.342Z,4.15
2018-11-01T16:49:28.481Z,3.87
2018-11-01T16:51:56.528Z,3.45
2018-11-01T16:54:24.370Z,4.03
2018-11-01T16:56:52.107Z,3.92
2018-11-01T16:59:19.951Z,5.55
2018-11-01T17:01:47.693Z,3.85
2018-11-01T17:04:15.742Z,3.60
2018-11-01T17:06:43.524Z,5.75
2018-11-01T17:09:11.431Z,5.62
2018-11-01T17:11:40.746Z,5.58
2018-11-01T17:14:08.611Z,4.75
2018-11-01T17:16:37.642Z,4.22
2018-11-01T17:19:06.710Z,3.67
2018-11-01T17:21:34.789Z,6.22
2018-11-01T17:24:02.934Z,8.28
2018-11-01T17:26:30.894Z,3.62
2018-11-01T17:28:59.134Z,6.95
2018-11-01T17:31:26.970Z,7.17
2018-11-01T17:33:55.536Z,3.70
2018-11-01T17:36:23.389Z,5.28
2018-11-01T17:38:51.395Z,6.47
2018-11-01T17:41:19.326Z,8.30
2018-11-01T17:43:47.806Z,8.30
2018-11-01T17:46:19.733Z,8.90
2018-11-01T17:48:47.453Z,7.08
2018-11-01T17:51:15.687Z,6.70
2018-11-01T17:53:43.511Z,6.53
2018-11-01T17:56:11.994Z,7.22
2018-11-01T17:58:40.588Z,6.85
2018-11-01T18:01:08.637Z,6.78
2018-11-01T18:03:36.712Z,6.42
2018-11-01T18:06:04.692Z,7.70
2018-11-01T18:08:32.697Z,5.60
2018-11-01T18:11:00.580Z,6.75
2018-11-01T18:13:28.508Z,14.45
2018-11-01T18:15:56.491Z,6.47
2018-11-01T18:18:25.338Z,7.85
2018-11-01T18:20:53.260Z,4.12
2018-11-01T18:23:22.618Z,4.80
2018-11-01T18:25:50.831Z,5.87
2018-11-01T18:28:21.197Z,12.10
2018-11-01T18:30:49.224Z,9.00
2018-11-01T18:33:17.873Z,8.15
2018-11-01T18:35:45.737Z,21.05
2018-11-01T18:38:14.304Z,22.02
2018-11-01T18:40:42.425Z,20.35
2018-11-01T18:43:10.952Z,13.18
2018-11-01T18:45:38.915Z,11.45
2018-11-01T18:48:07.389Z,11.57
2018-11-01T18:50:35.323Z,9.88
2018-11-01T18:53:03.200Z,14.53
2018-11-01T18:55:31.052Z,10.08
2018-11-01T18:57:59.108Z,10.48
2018-11-01T19:00:26.955Z,8.10
2018-11-01T19:02:54.798Z,6.92
2018-11-01T19:05:22.623Z,9.75
2018-11-01T19:07:51.001Z,9.20
2018-11-01T19:10:19.107Z,9.45
2018-11-01T19:12:47.279Z,14.55
2018-11-01T19:15:15.785Z,9.50
2018-11-01T19:17:43.970Z,12.05
2018-11-01T19:20:12.698Z,9.48
2018-11-01T19:22:43.290Z,9.70
2018-11-01T19:25:11.570Z,7.60
2018-11-01T19:27:39.626Z,6.97
2018-11-01T19:30:09.916Z,6.62
2018-11-01T19:32:38.082Z,6.90
2018-11-01T19:35:07.216Z,4.20
2018-11-01T19:37:35.570Z,5.85
2018-11-01T19:40:04.240Z,5.55
2018-11-01T19:42:33.307Z,6.87
2018-11-01T19:45:01.234Z,5.83
2018-11-01T19:47:29.185Z,11.90
2018-11-01T19:49:57.167Z,4.95
2018-11-01T19:52:24.929Z,5.22
2018-11-01T19:54:52.749Z,6.42
2018-11-01T19:57:20.506Z,3.65
2018-11-01T19:59:48.428Z,2.90
2018-11-01T20:02:16.306Z,2.90
2018-11-01T20:04:44.190Z,5.70
2018-11-01T20:07:11.942Z,7.15
2018-11-01T20:09:39.681Z,5.30
2018-11-01T20:12:07.559Z,6.40
2018-11-01T20:14:35.673Z,6.78
2018-11-01T20:17:04.110Z,6.40
2018-11-01T20:19:31.891Z,4.75
2018-11-01T20:21:59.549Z,4.47
2018-11-01T20:24:27.952Z,3.50
2018-11-01T20:26:55.820Z,4.97
2018-11-01T20:29:24.241Z,3.52
2018-11-01T20:31:52.028Z,3.33
2018-11-01T20:34:19.857Z,4.53
2018-11-01T20:36:48.475Z,4.47
2018-11-01T20:39:16.317Z,6.33
2018-11-01T20:41:44.887Z,6.30
2018-11-01T20:44:12.831Z,7.78
2018-11-01T20:46:40.566Z,5.12
2018-11-01T20:49:08.627Z,3.95
2018-11-01T20:51:36.571Z,3.90
2018-11-01T20:54:05.183Z,3.95
2018-11-01T20:56:33.216Z,4.33
2018-11-01T20:59:01.129Z,3.30
2018-11-01T21:01:29.000Z,2.77
2018-11-01T21:03:57.243Z,2.85
2018-11-01T21:06:25.371Z,2.52
2018-11-01T21:08:53.468Z,2.15
2018-11-01T21:11:22.971Z,1.92
2018-11-01T21:13:50.683Z,4.53
2018-11-01T21:16:18.728Z,1.72
2018-11-01T21:18:46.530Z,2.40
2018-11-01T21:21:14.714Z,3.75
2018-11-01T21:23:42.945Z,3.20
2018-11-01T21:26:10.941Z,2.72
2018-11-01T21:28:38.899Z,1.30
2018-11-01T21:31:07.091Z,1.60
2018-11-01T21:33:35.249Z,1.32
2018-11-01T21:36:04.015Z,1.02
2018-11-01T21:38:32.435Z,1.60
2018-11-01T21:41:00.953Z,1.40
2018-11-01T21:43:29.624Z,2.90
2018-11-01T21:45:58.711Z,4.62
2018-11-01T21:48:26.915Z,1.77
2018-11-01T21:50:54.747Z,1.30
2018-11-01T21:53:22.655Z,1.30
2018-11-01T21:55:51.342Z,1.05
2018-11-01T21:58:19.070Z,1.20
2018-11-01T22:00:47.424Z,2.58
2018-11-01T22:03:15.203Z,1.22
2018-11-01T22:05:44.767Z,1.37
2018-11-01T22:08:12.467Z,1.77
2018-11-01T22:10:40.204Z,1.90
2018-11-01T22:13:07.831Z,1.10
2018-11-01T22:15:35.654Z,1.50
2018-11-01T22:18:03.330Z,6.00
2018-11-01T22:20:31.049Z,3.62
2018-11-01T22:22:58.954Z,1.90
2018-11-01T22:25:26.673Z,2.50
2018-11-01T22:27:54.393Z,2.55
2018-11-01T22:30:22.260Z,2.30
2018-11-01T22:32:49.986Z,2.60
2018-11-01T22:35:18.843Z,3.00
2018-11-01T22:37:47.127Z,3.00
2018-11-01T22:40:14.728Z,2.72
2018-11-01T22:42:42.734Z,3.20
2018-11-01T22:45:11.453Z,2.75
2018-11-01T22:47:39.578Z,3.15
2018-11-01T22:50:09.006Z,2.70
2018-11-01T22:52:37.048Z,4.53
2018-11-01T22:55:06.222Z,2.70
2018-11-01T22:57:34.744Z,2.85
2018-11-01T23:00:02.740Z,2.42
2018-11-01T23:02:30.517Z,3.25
2018-11-01T23:04:58.282Z,3.10
2018-11-01T23:07:26.690Z,2.95
2018-11-01T23:09:55.036Z,3.15
2018-11-01T23:12:22.717Z,3.10
2018-11-01T23:14:50.619Z,3.12
2018-11-01T23:17:19.146Z,2.95
2018-11-01T23:19:46.787Z,4.50
2018-11-01T23:22:14.401Z,3.00
2018-11-01T23:24:42.201Z,3.27
2018-11-01T23:27:09.894Z,3.12
2018-11-01T23:29:37.773Z,3.30
2018-11-01T23:32:05.882Z,3.40
2018-11-01T23:34:33.609Z,3.62
2018-11-01T23:37:06.889Z,3.50
2018-11-01T23:39:40.091Z,2.65
2018-11-01T23:42:13.398Z,2.35
2018-11-01T23:44:46.766Z,3.25
2018-11-01T23:47:21.303Z,2.62
2018-11-01T23:49:56.354Z,3.12
2018-11-01T23:52:25.270Z,2.45
2018-11-01T23:54:53.565Z,2.40
2018-11-01T23:57:21.346Z,2.37
2018-11-01T23:59:48.966Z,2.62
